Terminal Aerodrome Forecast
Issued by NWS Houston/Galveston TX

Home | Current Version | Previous Version | Text Only | Print | Product List | Glossary On
Versions: 1 2 3 4 5 6 7 8 9 10 11 12 13 14 15 16 17 18 19 20 21 22 23 24 25 26 27 28 29 30 31 32 33 34 35 36 37 38 39 40 41 42 43 44 45 46 47 48 49 50
000
FTUS44 KHGX 140534
TAFHOU
TAF
KHOU 140534Z 1406/1506 12008KT P6SM SCT025 BKN035
     FM140700 12007KT P6SM SCT015 BKN025
     FM140900 15007KT P6SM OVC012
     FM141400 16009KT P6SM SCT012 BKN025
     FM141700 16013G23KT P6SM BKN035
     FM150000 15006KT P6SM BKN035
     FM150500 15005KT P6SM SCT015 BKN025=

USA.gov is the U.S. government's official web portal to all federal, state and local government web resources and services.